Time;durP1;ratioP1;P1;durP2;ratioP2;P2;SDS_P1;SDS_P2;PMS_P1;PMS_P2;Temp;Humidity;BMP_temperature;BMP_pressure;BME280_temperature;BME280_humidity;BME280_pressure;Samples;Min_cycle;Max_cycle;Signal;HPM_P1;HPM_P2
2022/03/27 00:01:21;;;;;;;0.55;0.10;;;;;;;;;;4214774;28;20079;-36
2022/03/27 00:03:22;;;;;;;0.85;0.22;;;;;;;;;;4214366;28;20079;-36
2022/03/27 00:05:23;;;;;;;0.68;0.10;;;;;;;;;;4213367;28;20053;-37
2022/03/27 00:07:25;;;;;;;0.50;0.20;;;;;;;;;;4214602;28;20047;-36
2022/03/27 00:09:26;;;;;;;0.20;0.10;;;;;;;;;;4213368;28;20503;-37
2022/03/27 00:11:30;;;;;;;0.45;0.10;;;;;;;;;;4214495;28;20109;-36
2022/03/27 00:13:31;;;;;;;0.50;0.10;;;;;;;;;;4214276;28;20449;-37
2022/03/27 00:15:32;;;;;;;0.35;0.10;;;;;;;;;;4214546;28;20097;-37
2022/03/27 00:17:34;;;;;;;0.20;0.10;;;;;;;;;;4212783;28;20059;-37
2022/03/27 00:19:35;;;;;;;1.65;0.20;;;;;;;;;;4213480;28;20044;-36
2022/03/27 00:21:35;;;;;;;0.20;0.10;;;;;;;;;;4214684;28;20113;-36
2022/03/27 00:23:36;;;;;;;0.35;0.10;;;;;;;;;;4218851;28;20043;-36
2022/03/27 00:25:37;;;;;;;0.63;0.17;;;;;;;;;;4208264;28;20055;-37
2022/03/27 00:27:38;;;;;;;0.20;0.00;;;;;;;;;;4197840;28;20515;-37
2022/03/27 00:29:39;;;;;;;0.10;0.10;;;;;;;;;;4197755;28;20135;-37
2022/03/27 00:31:40;;;;;;;1.27;0.20;;;;;;;;;;4196372;28;20190;-36
2022/03/27 00:33:42;;;;;;;0.28;0.10;;;;;;;;;;4197241;28;20102;-37
2022/03/27 00:35:42;;;;;;;0.47;0.17;;;;;;;;;;4196040;28;20044;-37
2022/03/27 00:37:43;;;;;;;0.30;0.10;;;;;;;;;;4197441;28;20094;-36
2022/03/27 00:39:45;;;;;;;0.65;0.10;;;;;;;;;;4197648;28;20087;-37
2022/03/27 00:41:46;;;;;;;0.55;0.10;;;;;;;;;;4197355;28;20048;-36
2022/03/27 00:43:48;;;;;;;0.75;0.22;;;;;;;;;;4197246;28;20487;-37
2022/03/27 00:45:49;;;;;;;1.40;0.22;;;;;;;;;;4197375;28;20044;-36
2022/03/27 00:47:50;;;;;;;0.40;0.15;;;;;;;;;;4195379;28;20083;-36
2022/03/27 00:49:51;;;;;;;0.32;0.10;;;;;;;;;;4197135;28;20550;-36
2022/03/27 00:51:52;;;;;;;0.20;0.10;;;;;;;;;;4197151;28;20052;-37
2022/03/27 00:53:54;;;;;;;0.20;0.10;;;;;;;;;;4195932;28;20105;-37
2022/03/27 00:55:55;;;;;;;0.10;0.10;;;;;;;;;;4196072;28;20055;-37
2022/03/27 00:57:58;;;;;;;0.20;0.10;;;;;;;;;;4197545;28;20102;-37
2022/03/27 00:59:58;;;;;;;0.40;0.10;;;;;;;;;;4214191;28;20044;-36
2022/03/27 01:02:01;;;;;;;0.15;0.10;;;;;;;;;;4213351;28;20506;-37
2022/03/27 01:04:06;;;;;;;0.30;0.10;;;;;;;;;;4213782;28;20048;-37
2022/03/27 01:06:16;;;;;;;0.20;0.10;;;;;;;;;;4212366;28;20055;-36
2022/03/27 01:09:35;;;;;;;0.20;0.20;;;;;;;;;;4213895;28;20101;-36
2022/03/27 01:10:42;;;;;;;0.20;0.10;;;;;;;;;;4213455;28;20101;-35
2022/03/27 01:12:44;;;;;;;0.55;0.20;;;;;;;;;;4213653;28;20052;-34
2022/03/27 01:14:45;;;;;;;0.30;0.10;;;;;;;;;;4213691;28;20048;-35
2022/03/27 01:16:55;;;;;;;0.40;0.10;;;;;;;;;;4213307;28;20244;-34
2022/03/27 01:18:57;;;;;;;1.13;0.20;;;;;;;;;;4212202;28;20055;-35
2022/03/27 01:20:58;;;;;;;0.20;0.10;;;;;;;;;;4213606;28;20044;-35
2022/03/27 01:22:59;;;;;;;0.30;0.10;;;;;;;;;;4212058;28;20105;-34
2022/03/27 01:25:00;;;;;;;0.05;0.05;;;;;;;;;;4213495;28;20101;-35
2022/03/27 01:27:02;;;;;;;0.08;0.08;;;;;;;;;;4213354;28;20047;-34
2022/03/27 01:29:04;;;;;;;0.65;0.10;;;;;;;;;;4213770;28;20044;-34
2022/03/27 01:31:07;;;;;;;0.10;0.10;;;;;;;;;;4212183;28;20406;-35
2022/03/27 01:33:11;;;;;;;0.45;0.10;;;;;;;;;;4212865;28;20048;-34
2022/03/27 01:35:12;;;;;;;1.65;0.15;;;;;;;;;;4213505;28;20044;-34
2022/03/27 01:37:14;;;;;;;0.00;0.00;;;;;;;;;;4213601;28;20093;-34
2022/03/27 01:39:16;;;;;;;0.65;0.08;;;;;;;;;;4213184;28;20097;-35
2022/03/27 01:41:17;;;;;;;0.20;0.17;;;;;;;;;;4213435;28;20051;-35
2022/03/27 01:43:18;;;;;;;0.25;0.10;;;;;;;;;;4213133;28;20048;-35
2022/03/27 01:45:19;;;;;;;0.50;0.13;;;;;;;;;;4212221;28;20048;-35
2022/03/27 01:47:21;;;;;;;0.10;0.10;;;;;;;;;;4211280;28;20585;-35
2022/03/27 01:49:22;;;;;;;0.63;0.20;;;;;;;;;;4213169;28;20475;-35
2022/03/27 01:51:22;;;;;;;0.30;0.10;;;;;;;;;;4213216;28;20174;-35
2022/03/27 01:53:23;;;;;;;0.90;0.25;;;;;;;;;;4212773;28;20040;-35
2022/03/27 01:55:24;;;;;;;0.63;0.28;;;;;;;;;;4212918;28;20083;-35
2022/03/27 01:57:25;;;;;;;0.55;0.20;;;;;;;;;;4212782;28;20174;-35
2022/03/27 01:59:26;;;;;;;0.20;0.10;;;;;;;;;;4213066;28;20044;-36
2022/03/27 02:01:27;;;;;;;0.40;0.20;;;;;;;;;;4212703;28;20048;-35
2022/03/27 02:03:28;;;;;;;0.50;0.20;;;;;;;;;;4211144;28;20044;-35
2022/03/27 02:05:31;;;;;;;0.10;0.10;;;;;;;;;;4212934;28;20056;-35
2022/03/27 02:07:42;;;;;;;1.17;0.20;;;;;;;;;;4212698;28;20067;-35
2022/03/27 02:09:43;;;;;;;0.20;0.10;;;;;;;;;;4213095;28;20059;-34
2022/03/27 02:11:44;;;;;;;0.35;0.10;;;;;;;;;;4212661;28;20516;-35
2022/03/27 02:13:45;;;;;;;0.85;0.20;;;;;;;;;;4212682;28;20139;-35
2022/03/27 02:15:46;;;;;;;0.13;0.10;;;;;;;;;;4212774;28;20052;-37
2022/03/27 02:17:47;;;;;;;0.22;0.20;;;;;;;;;;4202644;28;20138;-35
2022/03/27 02:19:48;;;;;;;1.05;0.15;;;;;;;;;;4212266;28;20084;-34
2022/03/27 02:21:49;;;;;;;0.20;0.17;;;;;;;;;;4212664;28;20398;-34
2022/03/27 02:23:51;;;;;;;0.20;0.10;;;;;;;;;;4212798;28;20377;-34
2022/03/27 02:25:52;;;;;;;1.10;0.30;;;;;;;;;;4212844;28;20461;-36
2022/03/27 02:27:53;;;;;;;0.10;0.10;;;;;;;;;;4212585;28;20052;-35
2022/03/27 02:29:54;;;;;;;0.52;0.20;;;;;;;;;;4212593;28;20047;-35
2022/03/27 02:31:55;;;;;;;0.22;0.10;;;;;;;;;;4211907;28;20205;-34
2022/03/27 02:33:56;;;;;;;0.40;0.10;;;;;;;;;;4212726;28;20467;-34
2022/03/27 02:35:57;;;;;;;0.22;0.10;;;;;;;;;;4212347;28;20067;-34
2022/03/27 02:37:58;;;;;;;0.47;0.10;;;;;;;;;;4213005;28;20059;-34
2022/03/27 02:39:59;;;;;;;0.20;0.10;;;;;;;;;;4194531;28;20496;-34
2022/03/27 02:42:00;;;;;;;0.73;0.10;;;;;;;;;;4212484;28;20048;-35
2022/03/27 02:44:01;;;;;;;1.27;0.30;;;;;;;;;;4212438;28;20131;-34
2022/03/27 02:46:02;;;;;;;0.63;0.20;;;;;;;;;;4212750;28;20052;-35
2022/03/27 02:48:03;;;;;;;0.15;0.15;;;;;;;;;;4210720;28;20545;-35
2022/03/27 02:50:05;;;;;;;0.30;0.10;;;;;;;;;;4212452;28;20056;-34
2022/03/27 02:52:06;;;;;;;0.43;0.25;;;;;;;;;;4212466;28;20090;-35
2022/03/27 02:54:08;;;;;;;0.63;0.30;;;;;;;;;;4212289;28;20048;-35
2022/03/27 02:56:09;;;;;;;0.47;0.30;;;;;;;;;;4212228;28;20052;-35
2022/03/27 02:58:10;;;;;;;0.00;0.00;;;;;;;;;;4205683;28;20090;-35
2022/03/27 03:00:11;;;;;;;0.30;0.20;;;;;;;;;;4196787;28;20048;-35
2022/03/27 03:02:12;;;;;;;0.17;0.10;;;;;;;;;;4195107;28;20113;-35
2022/03/27 03:04:14;;;;;;;0.73;0.20;;;;;;;;;;4177881;28;20098;-35
2022/03/27 03:06:15;;;;;;;0.10;0.10;;;;;;;;;;4195553;28;20044;-35
2022/03/27 03:08:17;;;;;;;0.45;0.20;;;;;;;;;;4195568;28;20758;-35
2022/03/27 03:10:18;;;;;;;0.10;0.10;;;;;;;;;;4195789;28;20075;-35
2022/03/27 03:12:19;;;;;;;0.22;0.10;;;;;;;;;;4195392;28;20510;-34
2022/03/27 03:14:20;;;;;;;0.43;0.20;;;;;;;;;;4195476;28;20302;-35
2022/03/27 03:16:22;;;;;;;0.22;0.13;;;;;;;;;;4195319;28;20178;-35
2022/03/27 03:18:24;;;;;;;0.20;0.20;;;;;;;;;;4206005;28;20048;-35
2022/03/27 03:20:25;;;;;;;0.22;0.10;;;;;;;;;;4195476;28;20101;-35
2022/03/27 03:22:27;;;;;;;0.13;0.10;;;;;;;;;;4195421;28;20098;-35
2022/03/27 03:24:28;;;;;;;0.20;0.10;;;;;;;;;;4209494;28;20405;-35
2022/03/27 03:26:29;;;;;;;0.38;0.10;;;;;;;;;;4212176;28;20054;-35
2022/03/27 03:28:30;;;;;;;0.52;0.20;;;;;;;;;;4212287;28;20044;-35
2022/03/27 03:30:31;;;;;;;0.73;0.10;;;;;;;;;;4215192;28;20436;-35
2022/03/27 03:32:34;;;;;;;0.75;0.25;;;;;;;;;;4214797;28;20078;-35
2022/03/27 03:34:35;;;;;;;0.80;0.30;;;;;;;;;;4215205;28;20059;-35
2022/03/27 03:36:36;;;;;;;0.30;0.20;;;;;;;;;;4209982;28;20090;-35
2022/03/27 03:38:37;;;;;;;0.20;0.10;;;;;;;;;;4205798;28;20095;-35
2022/03/27 03:40:40;;;;;;;0.25;0.10;;;;;;;;;;4215367;28;20048;-35
2022/03/27 03:42:41;;;;;;;0.43;0.10;;;;;;;;;;4214062;28;20039;-35
2022/03/27 03:44:43;;;;;;;0.68;0.20;;;;;;;;;;4214999;28;20343;-35
2022/03/27 03:46:44;;;;;;;0.77;0.10;;;;;;;;;;4215028;28;20392;-35
2022/03/27 03:48:45;;;;;;;1.35;0.40;;;;;;;;;;4213210;28;20145;-35
2022/03/27 03:50:46;;;;;;;1.67;0.20;;;;;;;;;;4215425;28;20086;-35
2022/03/27 03:52:46;;;;;;;2.58;0.32;;;;;;;;;;4215021;28;20095;-35
2022/03/27 03:54:47;;;;;;;0.20;0.10;;;;;;;;;;4215051;28;20070;-35
2022/03/27 03:56:48;;;;;;;0.30;0.10;;;;;;;;;;4214716;28;20083;-35
2022/03/27 03:58:49;;;;;;;0.85;0.15;;;;;;;;;;4214840;28;20353;-35
2022/03/27 04:00:50;;;;;;;0.32;0.10;;;;;;;;;;4214953;28;20090;-35
2022/03/27 04:02:52;;;;;;;0.95;0.20;;;;;;;;;;4214229;28;20487;-35
2022/03/27 04:04:52;;;;;;;0.30;0.10;;;;;;;;;;4214795;28;20051;-35
2022/03/27 04:06:53;;;;;;;0.20;0.10;;;;;;;;;;4208299;28;20052;-35
2022/03/27 04:08:54;;;;;;;0.25;0.17;;;;;;;;;;4199109;28;20186;-35
2022/03/27 04:10:55;;;;;;;0.20;0.15;;;;;;;;;;4204675;28;20056;-35
2022/03/27 04:12:56;;;;;;;0.70;0.30;;;;;;;;;;4203564;28;20105;-35
2022/03/27 04:14:57;;;;;;;0.10;0.10;;;;;;;;;;4212884;28;20048;-35
2022/03/27 04:17:00;;;;;;;0.45;0.20;;;;;;;;;;4211996;28;20101;-35
2022/03/27 04:19:01;;;;;;;0.10;0.10;;;;;;;;;;4211209;28;20101;-35
2022/03/27 04:21:02;;;;;;;0.75;0.20;;;;;;;;;;4212850;28;20052;-35
2022/03/27 04:23:03;;;;;;;0.30;0.13;;;;;;;;;;4212562;28;20052;-35
2022/03/27 04:25:05;;;;;;;0.10;0.10;;;;;;;;;;4212961;28;20308;-35
2022/03/27 04:27:06;;;;;;;0.20;0.20;;;;;;;;;;4211224;28;20063;-35
2022/03/27 04:29:07;;;;;;;0.60;0.10;;;;;;;;;;4200540;28;20044;-35
2022/03/27 04:31:08;;;;;;;0.52;0.15;;;;;;;;;;4198449;28;20109;-35
2022/03/27 04:33:10;;;;;;;0.57;0.10;;;;;;;;;;4213908;28;20052;-35
2022/03/27 04:35:11;;;;;;;0.20;0.10;;;;;;;;;;4214342;28;20101;-35
2022/03/27 04:37:12;;;;;;;0.20;0.13;;;;;;;;;;4212835;28;20430;-35
2022/03/27 04:39:13;;;;;;;0.10;0.10;;;;;;;;;;4214374;28;20048;-35
2022/03/27 04:41:14;;;;;;;0.17;0.17;;;;;;;;;;4213628;28;20048;-35
2022/03/27 04:43:15;;;;;;;0.22;0.20;;;;;;;;;;4214459;28;20089;-35
2022/03/27 04:45:15;;;;;;;2.38;0.20;;;;;;;;;;4210586;28;20493;-35
2022/03/27 04:47:16;;;;;;;0.28;0.13;;;;;;;;;;4211898;28;20055;-35
2022/03/27 04:49:17;;;;;;;0.25;0.10;;;;;;;;;;4210897;28;20521;-35
2022/03/27 04:51:18;;;;;;;0.30;0.25;;;;;;;;;;4211975;28;20074;-35
2022/03/27 04:53:19;;;;;;;0.10;0.10;;;;;;;;;;4210542;28;20055;-35
2022/03/27 04:55:20;;;;;;;0.20;0.20;;;;;;;;;;4211755;28;20624;-35
2022/03/27 04:57:21;;;;;;;0.10;0.10;;;;;;;;;;4211627;28;20187;-35
2022/03/27 04:59:23;;;;;;;0.30;0.10;;;;;;;;;;4209958;28;20078;-35
2022/03/27 05:01:24;;;;;;;0.10;0.10;;;;;;;;;;4214007;28;20089;-35
2022/03/27 05:03:25;;;;;;;0.30;0.10;;;;;;;;;;4211928;28;20203;-35
2022/03/27 05:05:26;;;;;;;0.28;0.10;;;;;;;;;;4213821;28;20503;-35
2022/03/27 05:07:27;;;;;;;0.00;0.00;;;;;;;;;;4212384;28;20051;-35
2022/03/27 05:09:28;;;;;;;1.15;0.25;;;;;;;;;;4213873;28;20047;-35
2022/03/27 05:11:29;;;;;;;0.20;0.10;;;;;;;;;;4213454;28;20087;-35
2022/03/27 05:13:30;;;;;;;1.02;0.20;;;;;;;;;;4213540;28;20080;-35
2022/03/27 05:15:31;;;;;;;0.10;0.10;;;;;;;;;;4212232;28;20206;-35
2022/03/27 05:17:32;;;;;;;0.28;0.13;;;;;;;;;;4211815;28;20048;-35
2022/03/27 05:19:33;;;;;;;0.20;0.10;;;;;;;;;;4213812;28;20040;-35
2022/03/27 05:21:35;;;;;;;0.20;0.10;;;;;;;;;;4213607;28;20107;-35
2022/03/27 05:23:36;;;;;;;0.20;0.10;;;;;;;;;;4213583;28;20388;-35
2022/03/27 05:25:45;;;;;;;0.10;0.10;;;;;;;;;;4213571;28;20096;-35
2022/03/27 05:27:47;;;;;;;0.17;0.10;;;;;;;;;;4208869;28;20501;-35
2022/03/27 05:29:49;;;;;;;0.50;0.22;;;;;;;;;;4195140;28;20048;-35
2022/03/27 05:31:51;;;;;;;1.65;0.20;;;;;;;;;;4196330;28;20041;-35
2022/03/27 05:33:52;;;;;;;0.20;0.13;;;;;;;;;;4196540;28;20046;-35
2022/03/27 05:35:53;;;;;;;0.35;0.10;;;;;;;;;;4202933;28;20131;-35
2022/03/27 05:37:54;;;;;;;0.45;0.15;;;;;;;;;;4213009;28;20131;-35
2022/03/27 05:39:55;;;;;;;0.20;0.10;;;;;;;;;;4213074;28;20048;-35
2022/03/27 05:41:56;;;;;;;0.35;0.10;;;;;;;;;;4213014;28;20062;-35
2022/03/27 05:43:57;;;;;;;0.20;0.13;;;;;;;;;;4213171;28;20101;-35
2022/03/27 05:45:59;;;;;;;0.35;0.20;;;;;;;;;;4213046;28;20101;-35
2022/03/27 05:48:00;;;;;;;0.10;0.05;;;;;;;;;;4212813;28;20059;-35
2022/03/27 05:50:01;;;;;;;0.52;0.10;;;;;;;;;;4213311;28;20048;-35
2022/03/27 05:52:03;;;;;;;0.10;0.10;;;;;;;;;;4211003;28;20052;-35
2022/03/27 05:54:04;;;;;;;0.22;0.10;;;;;;;;;;4212557;28;20552;-35
2022/03/27 05:56:05;;;;;;;0.10;0.10;;;;;;;;;;4212984;28;20152;-35
2022/03/27 05:58:07;;;;;;;0.47;0.20;;;;;;;;;;4212016;28;20056;-35
2022/03/27 06:00:09;;;;;;;0.30;0.10;;;;;;;;;;4213262;28;20044;-35
2022/03/27 06:02:10;;;;;;;0.50;0.20;;;;;;;;;;4212735;28;20097;-35
2022/03/27 06:04:10;;;;;;;0.03;0.03;;;;;;;;;;4213276;28;20102;-35
2022/03/27 06:06:12;;;;;;;1.15;0.20;;;;;;;;;;4212884;28;20117;-35
2022/03/27 06:08:13;;;;;;;0.30;0.10;;;;;;;;;;4212707;28;20455;-35
2022/03/27 06:10:15;;;;;;;0.47;0.20;;;;;;;;;;4212802;28;20427;-35
2022/03/27 06:12:16;;;;;;;0.40;0.17;;;;;;;;;;4212513;28;20552;-35
2022/03/27 06:14:18;;;;;;;0.10;0.10;;;;;;;;;;4212808;28;20109;-35
2022/03/27 06:16:20;;;;;;;0.13;0.10;;;;;;;;;;4212662;28;20117;-35
2022/03/27 06:18:21;;;;;;;0.20;0.10;;;;;;;;;;4211227;28;20048;-35
2022/03/27 06:20:31;;;;;;;0.40;0.10;;;;;;;;;;4212705;28;20488;-35
2022/03/27 06:22:33;;;;;;;0.52;0.10;;;;;;;;;;4212548;28;20117;-35
2022/03/27 06:24:34;;;;;;;0.20;0.10;;;;;;;;;;4212505;28;20048;-35
2022/03/27 06:26:35;;;;;;;1.95;0.15;;;;;;;;;;4212719;28;20044;-35
2022/03/27 06:28:36;;;;;;;0.28;0.20;;;;;;;;;;4212389;28;20052;-36
2022/03/27 06:30:37;;;;;;;0.20;0.10;;;;;;;;;;4212783;28;20055;-35
2022/03/27 06:32:38;;;;;;;0.20;0.10;;;;;;;;;;4212209;28;20135;-35
2022/03/27 06:34:39;;;;;;;0.30;0.20;;;;;;;;;;4212668;28;20051;-35
2022/03/27 06:36:41;;;;;;;0.60;0.20;;;;;;;;;;4211127;28;20131;-35
2022/03/27 06:38:42;;;;;;;0.10;0.10;;;;;;;;;;4211298;28;20090;-34
2022/03/27 06:40:43;;;;;;;0.38;0.20;;;;;;;;;;4212757;28;20048;-34
2022/03/27 06:42:45;;;;;;;0.15;0.10;;;;;;;;;;4212172;28;20491;-34
2022/03/27 06:44:46;;;;;;;0.20;0.10;;;;;;;;;;4212750;28;20048;-35
2022/03/27 06:46:47;;;;;;;0.30;0.20;;;;;;;;;;4212085;28;20552;-35
2022/03/27 06:48:49;;;;;;;0.80;0.20;;;;;;;;;;4212608;28;20052;-34
2022/03/27 06:50:50;;;;;;;0.43;0.25;;;;;;;;;;4212617;28;20052;-35
2022/03/27 06:52:53;;;;;;;0.20;0.10;;;;;;;;;;4212475;28;20048;-34
2022/03/27 06:54:54;;;;;;;0.47;0.10;;;;;;;;;;4212524;28;20062;-35
2022/03/27 06:56:55;;;;;;;0.08;0.00;;;;;;;;;;4212763;28;20055;-35
2022/03/27 06:58:56;;;;;;;0.40;0.10;;;;;;;;;;4212366;28;20056;-35
2022/03/27 07:03:17;;;;;;;0.38;0.10;;;;;;;;;;4211863;28;20044;-35
2022/03/27 07:05:18;;;;;;;0.10;0.10;;;;;;;;;;4214234;28;20110;-34
2022/03/27 07:07:20;;;;;;;0.08;0.05;;;;;;;;;;4215689;28;20044;-34
2022/03/27 07:09:21;;;;;;;0.20;0.10;;;;;;;;;;4215855;28;20044;-36
2022/03/27 07:11:21;;;;;;;0.00;0.00;;;;;;;;;;4215423;28;20083;-35
2022/03/27 07:13:23;;;;;;;0.17;0.10;;;;;;;;;;4215648;28;20173;-35
2022/03/27 07:15:24;;;;;;;0.50;0.20;;;;;;;;;;4215675;28;20048;-35
2022/03/27 07:17:25;;;;;;;0.30;0.10;;;;;;;;;;4215193;28;20533;-35
2022/03/27 07:19:26;;;;;;;0.00;0.00;;;;;;;;;;4215435;28;20121;-34
2022/03/27 07:21:27;;;;;;;0.20;0.20;;;;;;;;;;4215267;28;20091;-35
2022/03/27 07:23:28;;;;;;;0.05;0.00;;;;;;;;;;4215474;28;20092;-35
2022/03/27 07:25:34;;;;;;;0.43;0.20;;;;;;;;;;4215325;28;20118;-35
2022/03/27 07:27:37;;;;;;;0.10;0.10;;;;;;;;;;4215115;28;20549;-35
2022/03/27 07:29:38;;;;;;;0.28;0.15;;;;;;;;;;4215468;28;20172;-35
2022/03/27 07:31:41;;;;;;;0.43;0.20;;;;;;;;;;4215217;28;20432;-35
2022/03/27 07:33:42;;;;;;;1.55;0.10;;;;;;;;;;4214944;28;20097;-35
2022/03/27 07:35:44;;;;;;;0.22;0.10;;;;;;;;;;4215265;28;20485;-35
2022/03/27 07:37:45;;;;;;;0.60;0.10;;;;;;;;;;4215379;28;20065;-35
2022/03/27 07:39:46;;;;;;;0.10;0.10;;;;;;;;;;4215030;28;20059;-34
2022/03/27 07:41:47;;;;;;;0.13;0.10;;;;;;;;;;4213867;28;20079;-35
2022/03/27 07:43:48;;;;;;;0.20;0.00;;;;;;;;;;4215011;28;20039;-35
2022/03/27 07:45:49;;;;;;;0.20;0.10;;;;;;;;;;4214942;28;20406;-35
2022/03/27 07:47:51;;;;;;;0.10;0.10;;;;;;;;;;4214460;28;20112;-35
2022/03/27 07:49:52;;;;;;;0.55;0.10;;;;;;;;;;4215190;28;20402;-35
2022/03/27 07:51:54;;;;;;;0.47;0.10;;;;;;;;;;4215139;28;20181;-35
2022/03/27 07:53:55;;;;;;;0.10;0.10;;;;;;;;;;4215170;28;20048;-35
2022/03/27 07:55:56;;;;;;;0.10;0.00;;;;;;;;;;4197102;28;20281;-35
2022/03/27 07:57:57;;;;;;;0.10;0.10;;;;;;;;;;4214718;28;20060;-35
2022/03/27 07:59:58;;;;;;;0.10;0.10;;;;;;;;;;4215194;28;20040;-35
2022/03/27 08:02:00;;;;;;;0.45;0.10;;;;;;;;;;4214188;28;20055;-35
2022/03/27 08:04:01;;;;;;;0.20;0.10;;;;;;;;;;4214572;28;20044;-35
2022/03/27 08:06:03;;;;;;;0.15;0.15;;;;;;;;;;4214535;28;20056;-35
2022/03/27 08:08:03;;;;;;;0.10;0.08;;;;;;;;;;4214588;28;20214;-35
2022/03/27 08:10:05;;;;;;;0.10;0.10;;;;;;;;;;4214716;28;20059;-35
2022/03/27 08:12:09;;;;;;;0.15;0.15;;;;;;;;;;4214355;28;20483;-35
2022/03/27 08:14:11;;;;;;;0.30;0.20;;;;;;;;;;4214920;28;20054;-35
2022/03/27 08:16:12;;;;;;;2.38;0.30;;;;;;;;;;4213923;28;20110;-35
2022/03/27 08:18:13;;;;;;;0.32;0.10;;;;;;;;;;4214183;28;20124;-35
2022/03/27 08:20:14;;;;;;;0.17;0.17;;;;;;;;;;4214465;28;20094;-35
2022/03/27 08:22:16;;;;;;;0.10;0.10;;;;;;;;;;4214410;28;20403;-35
2022/03/27 08:24:17;;;;;;;0.43;0.10;;;;;;;;;;4214651;28;20052;-35
2022/03/27 08:28:37;;;;;;;0.13;0.10;;;;;;;;;;4214524;28;20102;-35
2022/03/27 08:30:39;;;;;;;0.60;0.10;;;;;;;;;;4214404;28;20120;-35
2022/03/27 08:32:40;;;;;;;0.52;0.20;;;;;;;;;;4213871;28;20048;-35
2022/03/27 08:34:42;;;;;;;0.60;0.20;;;;;;;;;;4214261;28;20047;-35
2022/03/27 08:36:44;;;;;;;0.40;0.15;;;;;;;;;;4214389;28;20044;-35
2022/03/27 08:38:45;;;;;;;0.35;0.17;;;;;;;;;;4212931;28;20044;-35
2022/03/27 08:40:47;;;;;;;0.28;0.17;;;;;;;;;;4214247;28;20101;-35
2022/03/27 08:42:48;;;;;;;0.10;0.10;;;;;;;;;;4213880;28;20441;-35
2022/03/27 08:44:49;;;;;;;0.20;0.10;;;;;;;;;;4214316;28;20083;-35
2022/03/27 08:46:51;;;;;;;0.13;0.10;;;;;;;;;;4213492;28;20077;-35
2022/03/27 08:48:51;;;;;;;0.17;0.10;;;;;;;;;;4213816;28;20044;-35
2022/03/27 08:51:06;;;;;;;0.22;0.17;;;;;;;;;;4214156;28;20109;-35
2022/03/27 08:53:08;;;;;;;1.48;0.10;;;;;;;;;;4213996;28;20403;-35
2022/03/27 08:55:20;;;;;;;0.10;0.10;;;;;;;;;;4213776;28;20044;-35
2022/03/27 08:57:41;;;;;;;0.10;0.10;;;;;;;;;;4213740;28;20372;-35
2022/03/27 08:59:42;;;;;;;0.10;0.10;;;;;;;;;;4208639;28;20097;-35
2022/03/27 09:01:43;;;;;;;0.10;0.10;;;;;;;;;;4213983;28;20070;-35
2022/03/27 09:03:44;;;;;;;0.17;0.10;;;;;;;;;;4213373;28;20087;-35
2022/03/27 09:05:45;;;;;;;0.30;0.10;;;;;;;;;;4212890;28;20090;-35
2022/03/27 09:07:47;;;;;;;0.10;0.10;;;;;;;;;;4213870;28;20048;-35
2022/03/27 09:09:48;;;;;;;0.10;0.10;;;;;;;;;;4213738;28;20044;-35
2022/03/27 09:11:49;;;;;;;0.55;0.10;;;;;;;;;;4213448;28;20054;-35
2022/03/27 09:13:52;;;;;;;0.03;0.00;;;;;;;;;;4213771;28;20052;-35
2022/03/27 09:16:07;;;;;;;0.20;0.10;;;;;;;;;;4213684;28;20039;-35
2022/03/27 09:18:09;;;;;;;0.40;0.10;;;;;;;;;;4213096;28;20553;-35
2022/03/27 09:20:11;;;;;;;0.75;0.10;;;;;;;;;;4213443;28;20047;-35
2022/03/27 09:22:13;;;;;;;0.10;0.08;;;;;;;;;;4213334;28;20051;-35
2022/03/27 09:24:15;;;;;;;0.10;0.10;;;;;;;;;;4213167;28;20043;-35
2022/03/27 09:26:17;;;;;;;0.32;0.10;;;;;;;;;;4212174;28;20052;-35
2022/03/27 09:28:22;;;;;;;0.28;0.10;;;;;;;;;;4213450;28;20052;-35
2022/03/27 09:30:32;;;;;;;0.20;0.20;;;;;;;;;;4211980;28;20055;-35
2022/03/27 09:32:37;;;;;;;0.25;0.10;;;;;;;;;;4212861;28;20052;-35
2022/03/27 09:34:57;;;;;;;0.10;0.10;;;;;;;;;;4212249;28;20048;-35
2022/03/27 09:37:00;;;;;;;;;;;;;;;;;;4213535;28;20070;-35
2022/03/27 09:39:08;;;;;;;0.10;0.08;;;;;;;;;;4213482;28;19920;-35
2022/03/27 09:41:28;;;;;;;0.70;0.30;;;;;;;;;;4213198;28;20043;-35
2022/03/27 09:43:29;;;;;;;1.50;0.20;;;;;;;;;;4213047;28;20086;-35
2022/03/27 09:45:30;;;;;;;0.45;0.15;;;;;;;;;;4213096;28;20134;-35
2022/03/27 09:47:32;;;;;;;0.20;0.10;;;;;;;;;;4212517;28;20113;-35
2022/03/27 09:49:34;;;;;;;0.10;0.10;;;;;;;;;;4213007;28;20081;-35
2022/03/27 09:51:49;;;;;;;0.15;0.10;;;;;;;;;;4212967;28;20129;-35
2022/03/27 09:53:57;;;;;;;0.32;0.20;;;;;;;;;;4213192;28;20085;-35
2022/03/27 09:55:58;;;;;;;0.55;0.10;;;;;;;;;;4212875;28;20071;-35
2022/03/27 09:57:59;;;;;;;0.20;0.10;;;;;;;;;;4211817;28;20048;-35
2022/03/27 10:00:18;;;;;;;0.00;0.00;;;;;;;;;;4211738;28;20423;-35
2022/03/27 10:02:19;;;;;;;0.35;0.10;;;;;;;;;;4212448;28;20093;-36
2022/03/27 10:04:20;;;;;;;0.20;0.10;;;;;;;;;;4212869;28;20043;-35
2022/03/27 10:06:31;;;;;;;1.15;0.20;;;;;;;;;;4212813;28;20102;-35
2022/03/27 10:08:32;;;;;;;0.45;0.10;;;;;;;;;;4211434;28;20077;-35
2022/03/27 10:10:33;;;;;;;0.50;0.20;;;;;;;;;;4212989;28;20101;-35
2022/03/27 10:12:34;;;;;;;0.20;0.00;;;;;;;;;;4213075;28;20083;-35
2022/03/27 10:14:35;;;;;;;0.22;0.10;;;;;;;;;;4212892;28;20101;-35
2022/03/27 10:16:41;;;;;;;0.30;0.10;;;;;;;;;;4212573;28;20066;-35
2022/03/27 10:18:43;;;;;;;0.28;0.10;;;;;;;;;;4210903;28;20077;-35
2022/03/27 10:20:46;;;;;;;0.30;0.10;;;;;;;;;;4212777;28;20044;-35
2022/03/27 10:22:49;;;;;;;0.03;0.03;;;;;;;;;;4211518;28;20097;-36
2022/03/27 10:24:51;;;;;;;0.60;0.15;;;;;;;;;;4212907;28;20545;-35
2022/03/27 10:26:55;;;;;;;0.30;0.20;;;;;;;;;;4212577;28;20048;-35
2022/03/27 10:28:56;;;;;;;1.02;0.28;;;;;;;;;;4212708;28;20101;-36
2022/03/27 10:30:57;;;;;;;0.30;0.13;;;;;;;;;;4212566;28;20131;-35
2022/03/27 10:33:00;;;;;;;0.28;0.10;;;;;;;;;;4212049;28;20071;-35
2022/03/27 10:35:09;;;;;;;0.65;0.20;;;;;;;;;;4212615;28;20048;-35
2022/03/27 10:37:14;;;;;;;0.30;0.20;;;;;;;;;;4212330;28;20097;-35
2022/03/27 10:39:35;;;;;;;0.20;0.10;;;;;;;;;;4211948;28;20047;-35
2022/03/27 10:41:36;;;;;;;0.10;0.10;;;;;;;;;;4212814;28;20503;-35
2022/03/27 10:43:42;;;;;;;0.10;0.10;;;;;;;;;;4212547;28;20059;-35
2022/03/27 10:45:43;;;;;;;0.10;0.10;;;;;;;;;;4212478;28;20044;-39
2022/03/27 10:48:04;;;;;;;0.47;0.20;;;;;;;;;;4211972;28;20052;-35
2022/03/27 10:50:05;;;;;;;0.30;0.20;;;;;;;;;;4212424;28;20044;-35
2022/03/27 10:52:07;;;;;;;0.10;0.10;;;;;;;;;;4212573;28;20097;-35
2022/03/27 10:54:14;;;;;;;0.40;0.20;;;;;;;;;;4212356;28;20052;-35
2022/03/27 10:56:30;;;;;;;0.00;0.00;;;;;;;;;;4211192;28;20077;-35
2022/03/27 10:58:33;;;;;;;0.35;0.22;;;;;;;;;;4210953;28;20044;-35
2022/03/27 11:00:39;;;;;;;0.73;0.10;;;;;;;;;;4212333;28;20125;-35
2022/03/27 11:02:46;;;;;;;0.50;0.20;;;;;;;;;;4211927;28;20044;-35
2022/03/27 11:04:47;;;;;;;0.30;0.10;;;;;;;;;;4211051;28;20098;-35
2022/03/27 11:06:49;;;;;;;0.10;0.10;;;;;;;;;;4212316;28;20394;-35
2022/03/27 11:08:51;;;;;;;0.68;0.10;;;;;;;;;;4212233;28;20514;-35
2022/03/27 11:10:55;;;;;;;0.20;0.20;;;;;;;;;;4212246;28;20052;-35
2022/03/27 11:13:15;;;;;;;0.10;0.10;;;;;;;;;;4212130;28;20489;-35
2022/03/27 11:15:17;;;;;;;0.95;0.10;;;;;;;;;;4212215;28;20055;-35
2022/03/27 11:17:34;;;;;;;0.10;0.10;;;;;;;;;;4210541;28;20048;-35
2022/03/27 11:19:39;;;;;;;0.35;0.10;;;;;;;;;;4212506;28;20048;-35
2022/03/27 11:21:44;;;;;;;0.10;0.10;;;;;;;;;;4212504;28;20052;-35
2022/03/27 11:23:45;;;;;;;0.10;0.10;;;;;;;;;;4212170;28;20067;-35
2022/03/27 11:25:46;;;;;;;0.52;0.20;;;;;;;;;;4212586;28;20256;-35
2022/03/27 11:27:56;;;;;;;0.50;0.10;;;;;;;;;;4210828;28;20081;-35
2022/03/27 11:30:10;;;;;;;0.43;0.20;;;;;;;;;;4212212;28;20571;-35
2022/03/27 11:32:11;;;;;;;0.68;0.10;;;;;;;;;;4211749;28;20059;-35
2022/03/27 11:34:12;;;;;;;0.50;0.20;;;;;;;;;;4210847;28;20059;-35
2022/03/27 11:36:16;;;;;;;0.63;0.10;;;;;;;;;;4211918;28;20109;-35
2022/03/27 11:38:20;;;;;;;0.20;0.10;;;;;;;;;;4211975;28;20094;-35
2022/03/27 11:40:40;;;;;;;0.38;0.20;;;;;;;;;;4212194;28;20048;-38
2022/03/27 11:42:41;;;;;;;;;;;;;;;;;;4212505;28;20055;-35
2022/03/27 11:47:02;;;;;;;0.30;0.30;;;;;;;;;;4212143;28;20048;-35
2022/03/27 11:49:03;;;;;;;0.40;0.10;;;;;;;;;;4211986;28;20047;-35
2022/03/27 11:51:13;;;;;;;0.60;0.15;;;;;;;;;;4213239;28;20104;-35
2022/03/27 11:53:15;;;;;;;0.20;0.10;;;;;;;;;;4215064;28;20048;-35
2022/03/27 11:55:18;;;;;;;0.30;0.20;;;;;;;;;;4214873;28;20542;-35
2022/03/27 11:57:20;;;;;;;0.20;0.10;;;;;;;;;;4214580;28;20063;-35
2022/03/27 11:59:22;;;;;;;0.50;0.10;;;;;;;;;;4214938;28;20102;-35
2022/03/27 12:01:23;;;;;;;1.95;0.20;;;;;;;;;;4214809;28;20051;-35
2022/03/27 12:03:24;;;;;;;0.10;0.10;;;;;;;;;;4213157;28;20114;-35
2022/03/27 12:05:33;;;;;;;0.90;0.10;;;;;;;;;;4215162;28;20044;-35
2022/03/27 12:07:50;;;;;;;0.20;0.10;;;;;;;;;;4214917;28;20052;-35
2022/03/27 12:09:58;;;;;;;1.45;0.20;;;;;;;;;;4214790;28;20437;-35
2022/03/27 12:12:10;;;;;;;0.40;0.20;;;;;;;;;;4214519;28;20056;-35
2022/03/27 12:14:11;;;;;;;0.63;0.10;;;;;;;;;;4214701;28;20048;-35
2022/03/27 12:16:23;;;;;;;1.13;0.20;;;;;;;;;;4214543;28;20093;-35
2022/03/27 12:18:35;;;;;;;0.40;0.20;;;;;;;;;;4213002;28;20125;-35
2022/03/27 12:20:47;;;;;;;0.70;0.15;;;;;;;;;;4214617;28;20094;-35
2022/03/27 12:22:51;;;;;;;0.22;0.10;;;;;;;;;;4214365;28;20062;-35